createdAt,value
2018-05-08T00:00:27.121Z,12.43
2018-05-08T00:01:27.100Z,12.44
2018-05-08T00:04:27.059Z,12.44
2018-05-08T00:05:27.088Z,12.33
2018-05-08T00:06:27.331Z,12.29
2018-05-08T00:07:27.016Z,12.30
2018-05-08T00:08:27.052Z,12.33
2018-05-08T00:09:26.986Z,12.28
2018-05-08T00:10:26.967Z,12.28
2018-05-08T00:11:26.963Z,12.40
2018-05-08T00:12:27.344Z,12.32
2018-05-08T00:13:26.924Z,12.32
2018-05-08T00:14:26.956Z,12.30
2018-05-08T00:15:26.905Z,12.26
2018-05-08T00:16:27.111Z,12.25
2018-05-08T00:17:26.867Z,12.26
2018-05-08T00:18:27.160Z,12.28
2018-05-08T00:21:26.901Z,12.18
2018-05-08T00:22:26.797Z,12.17
2018-05-08T00:23:26.779Z,12.17
2018-05-08T00:24:27.067Z,12.14
2018-05-08T00:26:26.837Z,12.11
2018-05-08T00:27:26.771Z,12.14
2018-05-08T00:28:26.702Z,12.15
2018-05-08T00:29:26.687Z,12.11
2018-05-08T00:30:26.978Z,12.08
2018-05-08T00:31:26.655Z,12.00
2018-05-08T00:32:26.643Z,11.99
2018-05-08T00:33:26.797Z,12.04
2018-05-08T00:34:26.659Z,12.07
2018-05-08T00:35:26.595Z,11.99
2018-05-08T00:36:26.882Z,11.99
2018-05-08T00:37:26.564Z,12.04
2018-05-08T00:38:26.756Z,12.00
2018-05-08T00:39:26.591Z,12.00
2018-05-08T00:40:26.518Z,12.04
2018-05-08T00:41:26.500Z,12.00
2018-05-08T00:42:26.784Z,11.99
2018-05-08T00:43:26.525Z,12.05
2018-05-08T00:44:26.560Z,11.96
2018-05-08T00:45:26.503Z,11.91
2018-05-08T00:46:26.526Z,12.03
2018-05-08T00:47:26.419Z,11.99
2018-05-08T00:48:27.306Z,12.03
2018-05-08T00:49:26.431Z,11.91
2018-05-08T00:50:26.364Z,12.00
2018-05-08T00:51:26.349Z,12.03
2018-05-08T00:53:26.323Z,11.99
2018-05-08T00:54:26.307Z,12.04
2018-05-08T00:55:26.637Z,12.04
2018-05-08T00:57:26.258Z,12.08
2018-05-08T00:58:26.339Z,12.08
2018-05-08T00:59:26.218Z,12.10
2018-05-08T01:00:26.558Z,12.04
2018-05-08T01:02:26.475Z,12.14
2018-05-08T01:03:26.163Z,12.07
2018-05-08T01:04:26.150Z,12.08
2018-05-08T01:06:26.176Z,12.13
2018-05-08T01:07:26.104Z,12.00
2018-05-08T01:08:26.100Z,12.04
2018-05-08T01:09:26.370Z,12.13
2018-05-08T01:10:26.057Z,12.11
2018-05-08T01:11:26.041Z,12.11
2018-05-08T01:12:26.127Z,12.10
2018-05-08T01:13:26.008Z,11.99
2018-05-08T01:14:25.995Z,11.97
2018-05-08T01:16:26.264Z,11.96
2018-05-08T01:17:25.962Z,11.97
2018-05-08T01:18:25.984Z,12.07
2018-05-08T01:19:25.919Z,12.04
2018-05-08T01:20:25.905Z,11.95
2018-05-08T01:22:26.169Z,11.95
2018-05-08T01:23:26.210Z,11.99
2018-05-08T01:24:25.847Z,11.91
2018-05-08T01:25:25.833Z,11.99
2018-05-08T01:26:25.806Z,11.88
2018-05-08T01:28:25.778Z,11.91
2018-05-08T01:29:26.106Z,11.91
2018-05-08T01:30:25.740Z,11.95
2018-05-08T01:31:25.724Z,11.89
2018-05-08T01:32:25.766Z,11.91
2018-05-08T01:33:25.693Z,11.91
2018-05-08T01:35:25.711Z,11.95
2018-05-08T01:37:25.941Z,11.88
2018-05-08T01:38:25.626Z,11.87
2018-05-08T01:39:25.616Z,11.89
2018-05-08T01:41:26.038Z,11.79
2018-05-08T01:42:25.562Z,11.80
2018-05-08T01:43:25.853Z,11.76
2018-05-08T01:44:25.530Z,11.76
2018-05-08T01:45:25.509Z,11.82
2018-05-08T01:46:25.498Z,11.76
2018-05-08T01:47:25.633Z,11.87
2018-05-08T01:49:25.760Z,11.73
2018-05-08T01:50:25.431Z,11.61
2018-05-08T01:51:25.519Z,11.73
2018-05-08T01:52:25.562Z,11.73
2018-05-08T01:54:25.372Z,11.59
2018-05-08T01:55:25.457Z,11.62
2018-05-08T01:57:25.625Z,11.59
2018-05-08T01:58:25.361Z,11.61
2018-05-08T01:59:25.297Z,11.58
2018-05-08T02:00:25.279Z,11.54
2018-05-08T02:01:25.257Z,11.48
2018-05-08T02:02:25.251Z,11.43
2018-05-08T02:03:25.532Z,11.43
2018-05-08T02:04:25.265Z,11.54
2018-05-08T02:05:25.211Z,11.45
2018-05-08T02:06:25.177Z,11.51
2018-05-08T02:07:25.168Z,11.41
2018-05-08T02:08:25.168Z,11.51
2018-05-08T02:09:25.433Z,11.46
2018-05-08T02:10:25.275Z,11.41
2018-05-08T02:12:25.091Z,11.48
2018-05-08T02:13:25.074Z,11.38
2018-05-08T02:14:25.066Z,11.46
2018-05-08T02:15:25.342Z,11.33
2018-05-08T02:16:25.077Z,11.36
2018-05-08T02:18:24.996Z,11.33
2018-05-08T02:19:25.080Z,11.31
2018-05-08T02:20:24.973Z,11.37
2018-05-08T02:21:25.250Z,11.40
2018-05-08T02:22:24.979Z,11.38
2018-05-08T02:23:24.914Z,11.33
2018-05-08T02:24:24.904Z,11.36
2018-05-08T02:25:24.884Z,11.23
2018-05-08T02:26:25.010Z,11.33
2018-05-08T02:27:24.902Z,11.33
2018-05-08T02:28:25.137Z,11.23
2018-05-08T02:29:24.822Z,11.27
2018-05-08T02:32:24.794Z,11.22
2018-05-08T02:34:25.087Z,11.23
2018-05-08T02:35:24.719Z,11.18
2018-05-08T02:36:24.704Z,11.18
2018-05-08T02:37:24.694Z,11.22
2018-05-08T02:38:24.679Z,11.22
2018-05-08T02:39:24.708Z,11.05
2018-05-08T02:40:24.639Z,11.12
2018-05-08T02:41:24.927Z,11.13
2018-05-08T02:42:24.613Z,11.13
2018-05-08T02:43:24.600Z,11.03
2018-05-08T02:45:24.618Z,11.00
2018-05-08T02:47:24.832Z,10.87
2018-05-08T02:48:24.516Z,10.91
2018-05-08T02:49:24.497Z,10.86
2018-05-08T02:50:24.495Z,10.86
2018-05-08T02:51:24.521Z,10.87
2018-05-08T02:53:24.736Z,10.75
2018-05-08T02:54:24.429Z,10.73
2018-05-08T02:55:24.402Z,10.75
2018-05-08T02:56:24.391Z,10.73
2018-05-08T02:57:24.736Z,10.73
2018-05-08T02:58:24.458Z,10.83
2018-05-08T02:59:24.346Z,10.80
2018-05-08T03:00:24.622Z,10.78
2018-05-08T03:01:24.357Z,10.72
2018-05-08T03:02:24.299Z,10.65
2018-05-08T03:03:24.328Z,10.70
2018-05-08T03:04:24.359Z,10.61
2018-05-08T03:05:24.240Z,10.70
2018-05-08T03:06:24.310Z,10.67
2018-05-08T03:07:24.493Z,10.68
2018-05-08T03:08:24.183Z,10.55
2018-05-08T03:09:24.269Z,10.58
2018-05-08T03:11:24.125Z,10.49
2018-05-08T03:12:24.121Z,10.60
2018-05-08T03:13:24.411Z,10.55
2018-05-08T03:14:24.095Z,10.62
2018-05-08T03:15:24.132Z,10.62
2018-05-08T03:16:24.066Z,10.62
2018-05-08T03:18:24.028Z,10.64
2018-05-08T03:19:24.011Z,10.55
2018-05-08T03:20:24.364Z,10.60
2018-05-08T03:21:24.028Z,10.55
2018-05-08T03:22:23.967Z,10.48
2018-05-08T03:23:23.948Z,10.55
2018-05-08T03:24:23.930Z,10.60
2018-05-08T03:25:23.919Z,10.54
2018-05-08T03:26:24.191Z,10.55
2018-05-08T03:27:23.925Z,10.46
2018-05-08T03:29:23.844Z,10.54
2018-05-08T03:30:23.823Z,10.57
2018-05-08T03:31:23.814Z,10.48
2018-05-08T03:32:24.105Z,10.61
2018-05-08T03:33:23.825Z,10.55
2018-05-08T03:34:23.758Z,10.57
2018-05-08T03:35:23.748Z,10.43
2018-05-08T03:36:23.722Z,10.48
2018-05-08T03:39:24.031Z,10.39
2018-05-08T03:41:23.647Z,10.21
2018-05-08T03:42:23.630Z,10.24
2018-05-08T03:44:23.603Z,10.24
2018-05-08T03:46:24.619Z,10.17
2018-05-08T03:47:23.543Z,10.18
2018-05-08T03:48:23.530Z,10.20
2018-05-08T03:49:23.517Z,10.17
2018-05-08T03:51:23.483Z,10.16
2018-05-08T03:52:23.514Z,10.10
2018-05-08T03:53:23.739Z,10.20
2018-05-08T03:54:23.429Z,10.16
2018-05-08T03:55:23.410Z,10.20
2018-05-08T03:56:23.397Z,10.20
2018-05-08T03:57:23.409Z,10.21
2018-05-08T03:58:23.415Z,10.27
2018-05-08T03:59:23.350Z,10.17
2018-05-08T04:00:23.629Z,10.24
2018-05-08T04:01:23.312Z,10.20
2018-05-08T04:02:23.292Z,10.17
2018-05-08T04:03:23.277Z,10.26
2018-05-08T04:04:23.307Z,10.23
2018-05-08T04:05:23.249Z,10.31
2018-05-08T04:06:23.225Z,10.35
2018-05-08T04:07:23.507Z,10.42
2018-05-08T04:08:23.229Z,10.43
2018-05-08T04:09:23.223Z,10.34
2018-05-08T04:10:23.163Z,10.45
2018-05-08T04:11:23.246Z,10.48
2018-05-08T04:12:23.128Z,10.46
2018-05-08T04:13:23.113Z,10.49
2018-05-08T04:14:23.392Z,10.54
2018-05-08T04:15:23.431Z,10.62
2018-05-08T04:16:23.058Z,10.62
2018-05-08T04:17:23.046Z,10.65
2018-05-08T04:18:23.031Z,10.70
2018-05-08T04:19:23.018Z,10.75
2018-05-08T04:20:22.993Z,10.67
2018-05-08T04:22:23.419Z,10.82
2018-05-08T04:23:22.954Z,10.83
2018-05-08T04:24:22.939Z,10.78
2018-05-08T04:25:23.204Z,10.79
2018-05-08T04:26:22.938Z,10.83
2018-05-08T04:27:22.868Z,10.78
2018-05-08T04:28:22.851Z,10.73
2018-05-08T04:29:23.140Z,10.80
2018-05-08T04:30:22.830Z,10.80
2018-05-08T04:31:22.808Z,10.75
2018-05-08T04:32:22.846Z,10.76
2018-05-08T04:33:22.786Z,10.87
2018-05-08T04:34:22.762Z,10.85
2018-05-08T04:35:22.743Z,10.91
2018-05-08T04:36:23.027Z,10.95
2018-05-08T04:37:22.712Z,11.01
2018-05-08T04:38:22.748Z,10.97
2018-05-08T04:39:22.786Z,10.95
2018-05-08T04:40:22.678Z,11.00
2018-05-08T04:41:22.800Z,11.05
2018-05-08T04:42:22.925Z,11.15
2018-05-08T04:43:22.610Z,11.12
2018-05-08T04:44:22.762Z,11.18
2018-05-08T04:45:22.577Z,11.20
2018-05-08T04:46:22.659Z,11.36
2018-05-08T04:47:22.570Z,11.36
2018-05-08T04:48:22.829Z,11.43
2018-05-08T04:49:22.661Z,11.54
2018-05-08T04:51:22.531Z,11.61
2018-05-08T04:53:22.447Z,11.76
2018-05-08T04:54:22.493Z,11.91
2018-05-08T04:55:23.322Z,12.07
2018-05-08T04:56:22.602Z,12.05
2018-05-08T04:57:22.882Z,12.03
2018-05-08T04:58:22.509Z,12.13
2018-05-08T04:59:22.597Z,12.17
2018-05-08T05:01:24.477Z,12.23
2018-05-08T05:02:22.311Z,12.35
2018-05-08T05:03:22.293Z,12.35
2018-05-08T05:04:22.275Z,12.47
2018-05-08T05:05:22.959Z,12.38
2018-05-08T05:06:22.345Z,12.46
2018-05-08T05:07:22.572Z,12.53
2018-05-08T05:08:22.210Z,12.63
2018-05-08T05:09:22.195Z,12.61
2018-05-08T05:10:22.187Z,12.66
2018-05-08T05:11:22.159Z,12.76
2018-05-08T05:12:22.847Z,12.77
2018-05-08T05:13:22.532Z,12.87
2018-05-08T05:14:22.115Z,12.91
2018-05-08T05:15:22.122Z,12.87
2018-05-08T05:16:22.092Z,12.99
2018-05-08T05:17:22.076Z,13.01
2018-05-08T05:18:22.159Z,13.05
2018-05-08T05:19:22.419Z,13.11
2018-05-08T05:20:22.033Z,13.04
2018-05-08T05:21:22.012Z,13.16
2018-05-08T05:22:22.001Z,13.21
2018-05-08T05:23:22.091Z,13.24
2018-05-08T05:24:21.976Z,13.21
2018-05-08T05:25:22.105Z,13.35
2018-05-08T05:26:21.934Z,13.45
2018-05-08T05:27:21.923Z,13.45
2018-05-08T05:28:21.908Z,13.58
2018-05-08T05:29:21.884Z,13.54
2018-05-08T05:30:22.229Z,13.63
2018-05-08T05:31:21.857Z,13.65
2018-05-08T05:32:22.193Z,13.72
2018-05-08T05:33:21.826Z,13.88
2018-05-08T05:34:21.840Z,13.88
2018-05-08T05:37:21.823Z,14.13
2018-05-08T05:38:22.061Z,14.13
2018-05-08T05:39:22.050Z,14.30
2018-05-08T05:40:21.728Z,14.27
2018-05-08T05:41:21.712Z,14.37
2018-05-08T05:42:21.711Z,14.49
2018-05-08T05:44:21.716Z,14.55
2018-05-08T05:45:21.646Z,14.55
2018-05-08T05:46:21.937Z,14.67
2018-05-08T05:47:21.627Z,14.71
2018-05-08T05:48:21.612Z,14.78
2018-05-08T05:49:21.599Z,14.87
2018-05-08T05:50:21.639Z,14.95
2018-05-08T05:53:21.672Z,15.07
2018-05-08T05:54:21.539Z,15.22
2018-05-08T05:55:21.521Z,15.23
2018-05-08T05:56:21.605Z,15.23
2018-05-08T05:57:21.480Z,15.30
2018-05-08T05:58:21.528Z,15.26
2018-05-08T05:59:21.449Z,15.38
2018-05-08T06:00:21.587Z,15.41
2018-05-08T06:01:21.573Z,15.43
2018-05-08T06:02:21.779Z,15.43
2018-05-08T06:03:21.727Z,15.47
2018-05-08T06:04:21.865Z,15.52
2018-05-08T06:05:21.666Z,15.62
2018-05-08T06:06:21.424Z,15.60
2018-05-08T06:07:21.344Z,15.68
2018-05-08T06:08:21.681Z,15.70
2018-05-08T06:09:21.323Z,15.77
2018-05-08T06:10:21.303Z,15.76
2018-05-08T06:11:21.595Z,15.80
2018-05-08T06:12:21.275Z,15.87
2018-05-08T06:13:21.423Z,15.95
2018-05-08T06:14:21.293Z,15.99
2018-05-08T06:15:21.234Z,16.06
2018-05-08T06:17:21.568Z,16.21
2018-05-08T06:18:21.205Z,16.29
2018-05-08T06:19:21.185Z,16.28
2018-05-08T06:20:21.329Z,16.39
2018-05-08T06:21:21.160Z,16.47
2018-05-08T06:22:21.143Z,16.54
2018-05-08T06:23:21.131Z,16.52
2018-05-08T06:24:21.420Z,16.57
2018-05-08T06:25:21.183Z,16.61
2018-05-08T06:26:21.225Z,16.67
2018-05-08T06:27:21.140Z,16.76
2018-05-08T06:28:21.087Z,16.74
2018-05-08T06:29:21.063Z,16.77
2018-05-08T06:30:21.334Z,16.90
2018-05-08T06:31:21.098Z,16.94
2018-05-08T06:32:21.072Z,16.98
2018-05-08T06:33:20.999Z,16.99
2018-05-08T06:34:20.994Z,16.98
2018-05-08T06:35:21.088Z,17.07
2018-05-08T06:36:21.275Z,17.10
2018-05-08T06:37:21.019Z,17.20
2018-05-08T06:38:21.047Z,17.34
2018-05-08T06:39:20.977Z,17.37
2018-05-08T06:40:20.911Z,17.45
2018-05-08T06:41:20.911Z,17.39
2018-05-08T06:43:21.334Z,17.56
2018-05-08T06:45:20.858Z,17.65
2018-05-08T06:46:20.844Z,17.78
2018-05-08T06:48:20.813Z,17.88
2018-05-08T06:49:20.853Z,17.90
2018-05-08T06:50:21.096Z,18.08
2018-05-08T06:51:20.812Z,18.15
2018-05-08T06:52:20.763Z,18.08
2018-05-08T06:53:20.751Z,18.24
2018-05-08T06:54:20.744Z,18.28
2018-05-08T06:55:20.777Z,18.30
2018-05-08T06:56:21.023Z,18.38
2018-05-08T06:57:21.017Z,18.38
2018-05-08T06:58:20.691Z,18.51
2018-05-08T06:59:20.684Z,18.48
2018-05-08T07:00:20.679Z,18.56
2018-05-08T07:01:20.725Z,18.56
2018-05-08T07:02:20.662Z,18.68
2018-05-08T07:03:20.649Z,18.71
2018-05-08T07:04:20.943Z,18.76
2018-05-08T07:05:20.628Z,18.85
2018-05-08T07:08:20.631Z,19.16
2018-05-08T07:09:20.567Z,19.16
2018-05-08T07:10:20.555Z,19.23
2018-05-08T07:11:20.851Z,19.23
2018-05-08T07:12:20.535Z,19.32
2018-05-08T07:13:20.587Z,19.41
2018-05-08T07:14:20.520Z,19.54
2018-05-08T07:15:20.504Z,19.59
2018-05-08T07:16:20.493Z,19.64
2018-05-08T07:18:20.469Z,19.87
2018-05-08T07:19:20.506Z,19.97
2018-05-08T07:20:20.448Z,20.05
2018-05-08T07:21:20.437Z,20.07
2018-05-08T07:22:20.451Z,20.14
2018-05-08T07:23:20.419Z,20.30
2018-05-08T07:24:20.710Z,20.41
2018-05-08T07:25:20.664Z,20.64
2018-05-08T07:26:20.385Z,21.10
2018-05-08T07:27:20.372Z,21.74
2018-05-08T07:28:20.359Z,22.55
2018-05-08T07:29:20.361Z,23.36
2018-05-08T07:30:20.338Z,24.06
2018-05-08T07:31:20.695Z,24.51
2018-05-08T07:32:20.332Z,25.14
2018-05-08T07:33:20.314Z,25.55
2018-05-08T07:34:20.301Z,25.61
2018-05-08T07:35:20.294Z,25.96
2018-05-08T07:36:20.280Z,26.11
2018-05-08T07:37:20.320Z,26.39
2018-05-08T07:38:20.672Z,26.56
2018-05-08T07:39:20.247Z,26.52
2018-05-08T07:40:20.238Z,25.96
2018-05-08T07:41:20.237Z,25.56
2018-05-08T07:42:20.227Z,25.71
2018-05-08T07:43:20.264Z,25.41
2018-05-08T07:44:20.553Z,25.37
2018-05-08T07:45:20.207Z,24.93
2018-05-08T07:46:20.238Z,25.58
2018-05-08T07:47:20.192Z,25.73
2018-05-08T07:48:20.171Z,25.82
2018-05-08T07:49:20.175Z,25.85
2018-05-08T07:50:20.519Z,26.45
2018-05-08T07:51:20.160Z,26.89
2018-05-08T07:52:20.156Z,27.26
2018-05-08T07:53:20.179Z,27.69
2018-05-08T07:54:20.157Z,27.87
2018-05-08T07:55:20.132Z,28.10
2018-05-08T07:56:20.526Z,27.69
2018-05-08T07:57:20.135Z,27.05
2018-05-08T07:58:20.217Z,27.17
2018-05-08T07:59:20.107Z,27.49
2018-05-08T08:00:20.091Z,26.95
2018-05-08T08:01:20.795Z,26.43
2018-05-08T08:02:20.427Z,26.67
2018-05-08T08:03:20.216Z,26.41
2018-05-08T08:04:20.409Z,26.28
2018-05-08T08:05:20.070Z,26.57
2018-05-08T08:06:20.258Z,26.57
2018-05-08T08:07:20.121Z,26.65
2018-05-08T08:08:20.337Z,26.83
2018-05-08T08:09:20.090Z,26.70
2018-05-08T08:10:20.031Z,26.43
2018-05-08T08:11:20.024Z,26.58
2018-05-08T08:12:20.034Z,26.83
2018-05-08T08:13:20.063Z,26.36
2018-05-08T08:14:20.323Z,26.23
2018-05-08T08:15:20.004Z,26.26
2018-05-08T08:16:19.998Z,26.89
2018-05-08T08:17:20.001Z,26.88
2018-05-08T08:18:19.991Z,27.25
2018-05-08T08:19:20.035Z,27.91
2018-05-08T08:20:20.282Z,28.03
2018-05-08T08:21:19.975Z,27.50
2018-05-08T08:22:19.968Z,27.68
2018-05-08T08:23:19.962Z,27.30
2018-05-08T08:24:20.215Z,28.03
2018-05-08T08:25:20.000Z,27.66
2018-05-08T08:26:20.248Z,27.85
2018-05-08T08:27:19.943Z,28.22
2018-05-08T08:28:19.955Z,28.31
2018-05-08T08:29:19.975Z,28.16
2018-05-08T08:31:20.558Z,27.30
2018-05-08T08:32:20.222Z,27.54
2018-05-08T08:33:19.923Z,26.52
2018-05-08T08:34:19.911Z,26.90
2018-05-08T08:35:19.910Z,27.57
2018-05-08T08:36:19.963Z,27.72
2018-05-08T08:37:20.217Z,27.54
2018-05-08T08:38:20.402Z,27.44
2018-05-08T08:39:20.072Z,27.38
2018-05-08T08:40:19.938Z,28.09
2018-05-08T08:41:19.906Z,28.57
2018-05-08T08:42:20.029Z,28.35
2018-05-08T08:43:19.935Z,28.49
2018-05-08T08:44:20.191Z,28.34
2018-05-08T08:45:19.874Z,27.88
2018-05-08T08:46:19.888Z,27.15
2018-05-08T08:47:19.944Z,26.78
2018-05-08T08:48:19.919Z,27.63
2018-05-08T08:49:19.867Z,27.35
2018-05-08T08:50:20.172Z,27.91
2018-05-08T08:51:19.864Z,28.19
2018-05-08T08:52:19.921Z,28.44
2018-05-08T08:53:19.900Z,28.34
2018-05-08T08:54:19.967Z,27.93
2018-05-08T08:55:19.850Z,27.53
2018-05-08T08:56:20.143Z,28.15
2018-05-08T08:57:19.870Z,28.40
2018-05-08T08:58:19.899Z,28.20
2018-05-08T08:59:19.842Z,27.27
2018-05-08T09:00:19.828Z,27.07
2018-05-08T09:01:19.827Z,26.42
2018-05-08T09:02:20.148Z,26.79
2018-05-08T09:03:21.171Z,26.93
2018-05-08T09:04:19.906Z,27.60
2018-05-08T09:05:19.833Z,27.75
2018-05-08T09:06:19.823Z,28.28
2018-05-08T09:08:21.387Z,28.57
2018-05-08T09:09:19.823Z,28.61
2018-05-08T09:10:19.883Z,29.28
2018-05-08T09:11:21.061Z,29.18
2018-05-08T09:12:19.812Z,28.65
2018-05-08T09:13:19.879Z,28.50
2018-05-08T09:14:20.233Z,27.93
2018-05-08T09:15:19.857Z,27.88
2018-05-08T09:16:19.803Z,27.47
2018-05-08T09:17:19.816Z,28.28
2018-05-08T09:18:19.799Z,28.38
2018-05-08T09:19:19.808Z,28.56
2018-05-08T09:20:20.108Z,28.49
2018-05-08T09:21:20.099Z,28.54
2018-05-08T09:22:19.796Z,28.83
2018-05-08T09:23:19.810Z,28.40
2018-05-08T09:24:20.051Z,28.80
2018-05-08T09:25:19.799Z,28.79
2018-05-08T09:26:19.789Z,28.71
2018-05-08T09:27:20.097Z,28.06
2018-05-08T09:28:19.996Z,28.66
2018-05-08T09:29:19.999Z,29.09
2018-05-08T09:30:19.797Z,29.83
2018-05-08T09:32:19.774Z,30.02
2018-05-08T09:33:20.085Z,29.63
2018-05-08T09:34:19.791Z,29.55
2018-05-08T09:35:20.024Z,29.54
2018-05-08T09:36:19.788Z,29.73
2018-05-08T09:37:19.773Z,30.10
2018-05-08T09:38:19.779Z,29.46
2018-05-08T09:39:19.780Z,29.22
2018-05-08T09:40:20.069Z,29.25
2018-05-08T09:41:19.924Z,29.04
2018-05-08T09:42:19.780Z,28.96
2018-05-08T09:43:19.779Z,28.98
2018-05-08T09:44:19.773Z,29.33
2018-05-08T09:45:20.095Z,30.02
2018-05-08T09:46:19.825Z,30.00
2018-05-08T09:47:20.153Z,30.20
2018-05-08T09:48:19.783Z,30.49
2018-05-08T09:49:19.772Z,30.74
2018-05-08T09:50:19.777Z,30.62
2018-05-08T09:51:19.782Z,30.70
2018-05-08T09:52:19.824Z,30.53
2018-05-08T09:53:20.065Z,30.90
2018-05-08T09:54:19.802Z,30.32
2018-05-08T09:56:19.777Z,29.17
2018-05-08T09:57:19.778Z,28.75
2018-05-08T09:58:19.824Z,28.12
2018-05-08T09:59:20.081Z,28.27
2018-05-08T10:00:19.771Z,28.49
2018-05-08T10:01:19.785Z,28.43
2018-05-08T10:02:19.928Z,29.04
2018-05-08T10:03:19.771Z,29.41
2018-05-08T10:04:19.855Z,29.98
2018-05-08T10:05:20.376Z,30.02
2018-05-08T10:06:19.772Z,30.02
2018-05-08T10:07:19.777Z,30.36
2018-05-08T10:08:19.773Z,29.92
2018-05-08T10:09:19.772Z,30.29
2018-05-08T10:13:19.775Z,30.40
2018-05-08T10:14:19.777Z,30.70
2018-05-08T10:15:19.793Z,30.70
2018-05-08T10:16:19.881Z,30.80
2018-05-08T10:17:20.191Z,29.54
2018-05-08T10:19:19.784Z,28.72
2018-05-08T10:20:19.786Z,28.24
2018-05-08T10:21:20.059Z,28.38
2018-05-08T10:22:19.785Z,28.68
2018-05-08T10:23:20.093Z,29.21
2018-05-08T10:24:19.788Z,28.91
2018-05-08T10:25:19.796Z,28.56
2018-05-08T10:26:19.808Z,28.27
2018-05-08T10:27:19.842Z,28.90
2018-05-08T10:28:19.812Z,29.21
2018-05-08T10:29:20.197Z,28.89
2018-05-08T10:30:19.804Z,28.56
2018-05-08T10:31:19.855Z,28.86
2018-05-08T10:32:19.798Z,29.18
2018-05-08T10:33:19.906Z,29.54
2018-05-08T10:34:19.922Z,29.84
2018-05-08T10:35:20.106Z,30.07
2018-05-08T10:36:19.813Z,30.07
2018-05-08T10:37:19.814Z,30.56
2018-05-08T10:38:19.836Z,30.59
2018-05-08T10:39:19.866Z,30.93
2018-05-08T10:40:19.851Z,30.85
2018-05-08T10:41:20.105Z,31.01
2018-05-08T10:42:19.801Z,31.29
2018-05-08T10:43:19.960Z,31.79
2018-05-08T10:44:19.816Z,30.92
2018-05-08T10:45:19.807Z,30.51
2018-05-08T10:46:19.816Z,30.88
2018-05-08T10:47:19.821Z,31.10
2018-05-08T10:48:20.415Z,30.35
2018-05-08T10:49:19.864Z,29.49
2018-05-08T10:50:19.922Z,29.84
2018-05-08T10:51:19.839Z,29.36
2018-05-08T10:52:19.842Z,28.01
2018-05-08T10:53:19.828Z,28.16
2018-05-08T10:54:20.174Z,28.64
2018-05-08T10:55:19.864Z,28.84
2018-05-08T10:56:19.891Z,28.37
2018-05-08T10:57:19.829Z,28.89
2018-05-08T10:58:19.833Z,30.13
2018-05-08T10:59:19.946Z,29.65
2018-05-08T11:00:19.956Z,29.46
2018-05-08T11:01:20.249Z,30.13
2018-05-08T11:02:19.847Z,30.95
2018-05-08T11:03:19.945Z,31.22
2018-05-08T11:04:19.841Z,30.39
2018-05-08T11:05:19.892Z,30.11
2018-05-08T11:06:22.808Z,29.59
2018-05-08T11:07:20.208Z,29.49
2018-05-08T11:08:19.854Z,30.22
2018-05-08T11:09:19.859Z,29.95
2018-05-08T11:10:19.895Z,29.55
2018-05-08T11:11:19.903Z,30.56
2018-05-08T11:12:19.918Z,31.12
2018-05-08T11:13:20.154Z,31.74
2018-05-08T11:14:19.850Z,31.63
2018-05-08T11:15:19.857Z,31.30
2018-05-08T11:16:19.949Z,31.05
2018-05-08T11:17:22.899Z,31.11
2018-05-08T11:19:28.708Z,31.64
2018-05-08T11:21:22.986Z,31.11
2018-05-08T11:22:21.257Z,30.49
2018-05-08T11:23:19.918Z,29.47
2018-05-08T11:24:19.873Z,29.68
2018-05-08T11:25:20.172Z,30.24
2018-05-08T11:26:19.880Z,30.39
2018-05-08T11:27:19.997Z,29.29
2018-05-08T11:28:20.105Z,29.65
2018-05-08T11:29:20.205Z,30.28
2018-05-08T11:30:20.244Z,30.85
2018-05-08T11:31:20.332Z,31.17
2018-05-08T11:32:19.979Z,30.10
2018-05-08T11:33:19.889Z,29.44
2018-05-08T11:34:20.003Z,29.56
2018-05-08T11:35:19.961Z,30.43
2018-05-08T11:36:19.915Z,30.13
2018-05-08T11:37:20.443Z,30.56
2018-05-08T11:39:21.556Z,30.62
2018-05-08T11:40:19.925Z,30.85
2018-05-08T11:41:23.975Z,31.20
2018-05-08T11:42:20.020Z,31.42
2018-05-08T11:43:20.221Z,31.84
2018-05-08T11:44:20.224Z,32.63
2018-05-08T11:45:20.092Z,32.39
2018-05-08T11:47:20.009Z,32.28
2018-05-08T11:48:19.962Z,32.20
2018-05-08T11:49:20.262Z,32.31
2018-05-08T11:50:19.943Z,32.51
2018-05-08T11:51:20.031Z,32.76
2018-05-08T11:52:20.060Z,32.20
2018-05-08T11:53:20.251Z,32.14
2018-05-08T11:54:20.145Z,32.14
2018-05-08T11:55:20.248Z,32.28
2018-05-08T11:56:19.970Z,32.58
2018-05-08T11:57:19.996Z,32.55
2018-05-08T11:58:20.128Z,32.90
2018-05-08T11:59:20.311Z,33.19
2018-05-08T12:00:19.981Z,32.14
2018-05-08T12:01:20.269Z,31.15
2018-05-08T12:02:20.078Z,29.89
2018-05-08T12:03:19.985Z,30.26
2018-05-08T12:04:19.992Z,31.38
2018-05-08T12:05:20.727Z,32.04
2018-05-08T12:06:20.205Z,30.77
2018-05-08T12:07:20.287Z,30.55
2018-05-08T12:08:19.988Z,30.83
2018-05-08T12:09:20.183Z,30.53
2018-05-08T12:11:20.011Z,31.45
2018-05-08T12:12:20.131Z,32.33
2018-05-08T12:13:20.298Z,32.33
2018-05-08T12:14:20.035Z,32.54
2018-05-08T12:15:20.077Z,31.29
2018-05-08T12:16:20.125Z,30.68
2018-05-08T12:17:20.125Z,31.24
2018-05-08T12:19:20.455Z,30.82
2018-05-08T12:20:20.084Z,31.24
2018-05-08T12:21:21.453Z,30.86
2018-05-08T12:22:20.050Z,30.93
2018-05-08T12:23:20.029Z,31.01
2018-05-08T12:24:20.032Z,31.04
2018-05-08T12:25:20.334Z,30.85
2018-05-08T12:26:20.059Z,30.46
2018-05-08T12:27:20.097Z,29.58
2018-05-08T12:28:20.041Z,29.46
2018-05-08T12:29:20.063Z,29.87
2018-05-08T12:30:20.061Z,30.67
2018-05-08T12:31:20.348Z,31.29
2018-05-08T12:32:20.062Z,31.01
2018-05-08T12:33:20.214Z,31.34
2018-05-08T12:34:20.085Z,31.66
2018-05-08T12:35:20.190Z,30.77
2018-05-08T12:36:20.066Z,31.24
2018-05-08T12:37:20.362Z,31.94
2018-05-08T12:38:20.079Z,31.79
2018-05-08T12:39:20.124Z,31.19
2018-05-08T12:40:20.076Z,30.71
2018-05-08T12:41:20.076Z,30.99
2018-05-08T12:42:20.083Z,31.79
2018-05-08T12:43:20.382Z,32.14
2018-05-08T12:44:20.145Z,32.60
2018-05-08T12:45:20.093Z,32.76
2018-05-08T12:46:20.119Z,32.95
2018-05-08T12:47:20.095Z,32.73
2018-05-08T12:48:20.101Z,31.70
2018-05-08T12:49:20.559Z,31.87
2018-05-08T12:50:20.240Z,32.33
2018-05-08T12:51:20.164Z,32.92
2018-05-08T12:52:20.120Z,32.55
2018-05-08T12:53:20.703Z,32.24
2018-05-08T12:54:20.230Z,32.09
2018-05-08T12:55:20.517Z,31.02
2018-05-08T12:56:20.120Z,30.59
2018-05-08T12:57:20.143Z,31.26
2018-05-08T12:58:20.136Z,31.59
2018-05-08T12:59:20.136Z,32.09
2018-05-08T13:00:20.422Z,30.83
2018-05-08T13:01:20.688Z,30.67
2018-05-08T13:02:20.141Z,31.02
2018-05-08T13:03:20.196Z,30.11
2018-05-08T13:04:20.147Z,29.96
2018-05-08T13:05:20.534Z,30.32
2018-05-08T13:06:20.494Z,30.29
2018-05-08T13:07:20.514Z,30.13
2018-05-08T13:08:20.418Z,30.58
2018-05-08T13:09:20.547Z,31.61
2018-05-08T13:10:20.160Z,31.84
2018-05-08T13:11:20.295Z,32.42
2018-05-08T13:12:20.471Z,32.32
2018-05-08T13:13:20.477Z,32.42
2018-05-08T13:14:20.172Z,32.53
2018-05-08T13:15:20.273Z,31.24
2018-05-08T13:16:20.178Z,31.22
2018-05-08T13:17:20.637Z,31.95
2018-05-08T13:18:20.519Z,32.50
2018-05-08T13:19:20.383Z,32.70
2018-05-08T13:20:20.185Z,32.23
2018-05-08T13:21:20.195Z,32.17
2018-05-08T13:22:20.195Z,31.74
2018-05-08T13:23:20.255Z,32.14
2018-05-08T13:24:20.576Z,31.98
2018-05-08T13:26:20.208Z,31.15
2018-05-08T13:27:20.508Z,30.60
2018-05-08T13:28:20.398Z,30.73
2018-05-08T13:29:20.391Z,30.37
2018-05-08T13:30:20.712Z,29.99
2018-05-08T13:31:20.368Z,30.13
2018-05-08T13:32:20.305Z,30.78
2018-05-08T13:33:20.232Z,31.24
2018-05-08T13:34:20.320Z,31.79
2018-05-08T13:35:20.304Z,32.21
2018-05-08T13:36:20.534Z,30.55
2018-05-08T13:37:20.244Z,29.96
2018-05-08T13:39:20.440Z,30.00
2018-05-08T13:40:20.411Z,30.45
2018-05-08T13:41:20.472Z,30.40
2018-05-08T13:42:20.564Z,31.26
2018-05-08T13:43:20.316Z,31.98
2018-05-08T13:44:20.576Z,32.32
2018-05-08T13:45:20.356Z,32.80
2018-05-08T13:46:20.258Z,32.99
2018-05-08T13:47:20.560Z,32.99
2018-05-08T13:48:20.719Z,33.07
2018-05-08T13:49:20.530Z,32.61
2018-05-08T13:50:20.272Z,31.94
2018-05-08T13:51:20.303Z,31.75
2018-05-08T13:52:20.281Z,32.08
2018-05-08T13:53:20.288Z,32.01
2018-05-08T13:54:20.585Z,32.08
2018-05-08T13:55:20.376Z,31.94
2018-05-08T13:56:20.605Z,31.76
2018-05-08T13:57:20.456Z,30.99
2018-05-08T13:58:20.305Z,31.17
2018-05-08T14:08:48.480Z,32.11